Latest Weather Observations for Hobart

IDT60901

Issued at 1:41 pm EST Sunday 25 September 2016 (issued every 10 minutes, with the page automatically refreshed every 10 minutes)

About weather observations | Map of Hobart area stations | Latest observations for Hobart area | Other Formats
Station Details ID: 094029 Name: HOBART (ELLERSLIE ROAD) Lat: -42.89 Lon: 147.33 Height: 50.5 m
Data from the previous 72 hours. | See also: Recent months at Hobart
Date/Time
EST
Temp
°C
App
Temp
°C
Dew
Point
°C
Rel
Hum
%
Delta-T
°C
Wind Press
QNH
hPa
Press
MSL
hPa
Rain since
9am
mm
Dir  Spd
km/h
Gust
km/h
Spd
kts
Gust
kts
25/01:30pm 16.8 10.8 -1.2 29 7.6 W 20 33 11 18 1004.3 1004.4 0.0
25/01:00pm 16.1 11.5 -1.0 31 7.2 W 13 20 7 11 1004.3 1004.4 0.0
25/12:30pm 13.2 7.1 0.7 42 5.3 S 22 33 12 18 1004.2 1004.3 0.0
25/12:00pm 13.6 8.1 0.7 41 5.5 SW 19 32 10 17 1004.1 1004.2 0.0
25/11:30am 13.5 8.2 2.1 46 5.0 SSW 19 28 10 15 1004.0 1004.1 0.0
25/11:00am 13.6 9.8 3.7 51 4.5 SW 13 22 7 12 1003.9 1004.0 0.0
25/10:30am 13.0 7.7 2.9 50 4.5 SSW 20 30 11 16 1003.6 1003.7 0.0
25/10:00am 13.6 8.3 2.9 48 4.8 SSW 20 35 11 19 1003.5 1003.6 0.0
25/09:30am 13.7 9.5 1.5 43 5.3 NNE 13 30 7 16 1003.2 1003.3 0.0
25/09:00am 13.3 9.9 4.1 53 4.2 SW 11 19 6 10 1002.9 1003.0 0.0
25/08:30am 13.1 8.5 3.9 53 4.2 S 17 26 9 14 1002.4 1002.5 0.0
25/08:00am 13.6 9.6 2.9 48 4.8 NW 13 20 7 11 1001.8 1001.8 0.0
25/07:30am 12.8 10.1 5.6 61 3.4 WNW 9 17 5 9 1001.5 1001.5 0.0
25/07:00am 12.2 10.0 6.3 67 2.8 S 7 13 4 7 1001.1 1001.1 0.0
25/06:30am 11.2 8.3 6.6 73 2.2 NW 11 20 6 11 1000.5 1000.5 0.0
25/06:00am 10.9 10.1 6.5 74 2.1 CALM 0 6 0 3 1000.0 1000.0 0.0
25/05:30am 10.8 9.1 6.1 73 2.2 NE 4 11 2 6 999.5 999.5 0.0
25/05:00am 10.6 9.1 6.6 76 1.9 S 4 7 2 4 999.7 999.7 0.0
25/04:30am 10.7 9.4 6.0 73 2.2 SE 2 6 1 3 999.6 999.6 0.0
25/04:00am 11.3 9.1 6.0 70 2.5 NNW 7 11 4 6 999.6 999.6 0.0
25/03:30am 11.8 8.3 5.6 66 2.9 NNW 13 17 7 9 999.9 999.9 0.0
25/03:00am 10.8 7.8 6.1 73 2.2 NNW 11 19 6 10 1000.3 1000.3 0.0
25/02:30am 10.7 8.3 6.9 77 1.8 NNW 9 13 5 7 1000.7 1000.7 0.0
25/02:00am 11.2 9.1 6.8 74 2.1 WNW 7 9 4 5 1001.2 1001.2 0.0
25/01:30am 11.8 8.9 6.6 70 2.5 NW 11 15 6 8 1001.5 1001.5 0.0
25/01:00am 11.7 9.9 7.2 74 2.2 WNW 6 9 3 5 1001.6 1001.6 0.0
25/12:30am 12.1 9.4 7.4 73 2.3 NW 11 15 6 8 1002.0 1002.0 0.0
25/12:00am 12.7 10.2 8.1 73 2.3 NW 11 15 6 8 1002.2 1002.3 0.0
 
Date/Time
EST
Temp
°C
App
Temp
°C
Dew
Point
°C
Rel
Hum
%
Delta-T
°C
Wind Press
QNH
hPa
Press
MSL
hPa
Rain since
9am
mm
Dir  Spd
km/h
Gust
km/h
Spd
kts
Gust
kts
24/11:30pm 13.0 11.4 8.9 76 2.1 NNW 7 13 4 7 1002.4 1002.5 0.0
24/11:00pm 13.9 11.2 8.8 71 2.6 N 13 19 7 10 1002.6 1002.7 0.0
24/10:30pm 14.0 11.0 9.1 72 2.5 NNW 15 20 8 11 1002.8 1002.9 0.0
24/10:00pm 14.2 10.5 9.3 72 2.5 NNW 19 26 10 14 1003.3 1003.4 0.0
24/09:30pm 13.9 12.0 10.5 80 1.8 N 11 17 6 9 1003.6 1003.7 0.0
24/09:00pm 12.9 11.5 10.8 87 1.1 NW 9 13 5 7 1003.8 1003.9 0.0
24/08:30pm 13.0 12.6 11.1 88 1.0 W 4 9 2 5 1004.1 1004.2 0.0
24/08:00pm 13.6 13.6 11.2 85 1.3 SW 2 7 1 4 1004.3 1004.4 0.0
24/07:30pm 13.9 13.0 11.3 84 1.4 SSW 7 11 4 6 1004.3 1004.4 0.0
24/07:00pm 14.1 12.8 11.3 83 1.5 SSW 9 11 5 6 1004.3 1004.4 0.0
24/06:30pm 14.2 12.9 11.4 83 1.5 SW 9 11 5 6 1004.3 1004.4 0.0
24/06:00pm 14.7 13.9 11.2 79 1.9 SE 6 9 3 5 1004.4 1004.5 0.0
24/05:30pm 15.2 12.7 11.1 76 2.2 NE 15 20 8 11 1004.3 1004.4 0.0
24/05:00pm 15.7 13.2 11.0 73 2.5 NE 15 20 8 11 1004.5 1004.6 0.0
24/04:30pm 15.9 11.3 10.9 72 2.7 NE 26 37 14 20 1004.3 1004.4 0.0
24/04:00pm 16.1 12.2 10.9 71 2.8 NE 22 30 12 16 1004.3 1004.4 0.0
24/03:30pm 16.8 13.4 11.1 69 3.1 NE 20 28 11 15 1004.7 1004.8 0.0
24/03:00pm 18.3 14.4 7.3 48 5.6 NNW 17 28 9 15 1005.0 1005.1 0.0
24/02:30pm 18.9 14.7 7.6 48 5.8 NNW 19 28 10 15 1005.2 1005.3 0.0
24/02:00pm 18.4 13.5 6.9 47 5.8 N 22 32 12 17 1005.4 1005.5 0.0
24/01:30pm 18.1 14.2 7.0 48 5.6 N 17 26 9 14 1006.0 1006.1 0.0
24/01:00pm 18.0 14.6 7.8 51 5.2 NNW 15 22 8 12 1006.5 1006.6 0.0
24/12:30pm 18.7 15.0 7.8 49 5.6 N 17 26 9 14 1007.1 1007.2 0.0
24/12:00pm 18.7 15.0 7.8 49 5.6 NNW 17 24 9 13 1007.5 1007.6 0.0
24/11:30am 17.3 14.0 7.9 54 4.8 NW 15 22 8 12 1007.9 1008.0 0.0
24/11:00am 16.9 13.1 7.6 54 4.7 NNW 17 24 9 13 1008.4 1008.5 0.0
24/10:30am 16.9 12.6 7.1 52 4.9 NW 19 28 10 15 1009.0 1009.1 0.0
24/10:00am 15.8 11.3 6.1 52 4.7 NNW 19 28 10 15 1009.5 1009.6 0.0
24/09:30am 14.8 10.6 5.8 55 4.3 NNW 17 26 9 14 1010.0 1010.1 0.0
24/09:00am 14.1 9.5 6.7 61 3.6 NNW 20 26 11 14 1010.2 1010.3 0.0
24/08:30am 13.1 9.6 7.4 68 2.8 NNW 15 22 8 12 1010.5 1010.5 0.0
24/08:00am 11.1 7.7 7.8 80 1.6 NNW 15 20 8 11 1010.9 1010.9 0.0
24/07:30am 10.5 7.5 7.6 82 1.4 NNW 13 17 7 9 1011.0 1011.0 0.0
24/07:00am 10.0 7.0 7.7 86 1.1 NNW 13 20 7 11 1011.1 1011.1 0.0
24/06:30am 9.7 6.6 7.4 85 1.1 NNW 13 15 7 8 1011.3 1011.3 0.0
24/06:00am 8.9 6.1 7.0 88 0.9 NNW 11 13 6 7 1011.1 1011.1 0.0
24/05:30am 8.7 6.3 7.2 90 0.7 NNW 9 11 5 6 1011.0 1011.0 0.0
24/05:00am 8.9 6.9 7.2 89 0.8 NNW 7 11 4 6 1011.2 1011.2 0.0
24/04:30am 9.1 7.7 7.2 88 0.9 NNE 4 9 2 5 1011.3 1011.3 0.0
24/04:00am 9.6 7.3 7.5 87 1.0 NNW 9 13 5 7 1011.5 1011.5 0.0
24/03:30am 9.4 7.1 7.3 87 1.0 NNW 9 13 5 7 1011.7 1011.7 0.0
24/03:00am 9.8 7.9 7.5 85 1.1 N 7 11 4 6 1012.0 1012.0 0.0
24/02:30am 9.5 7.8 7.6 88 0.9 WNW 6 7 3 4 1012.3 1012.3 0.0
24/02:00am 9.8 8.1 7.7 87 1.0 W 6 7 3 4 1012.5 1012.5 0.0
24/01:30am 10.4 8.8 8.1 86 1.1 SSW 6 7 3 4 1012.7 1012.7 0.0
24/01:00am 10.8 10.4 8.4 85 1.2 CALM 0 0 0 0 1012.9 1012.9 0.0
24/12:30am 10.9 9.4 8.5 85 1.2 NE 6 9 3 5 1013.1 1013.1 0.0
24/12:00am 11.4 10.5 7.9 79 1.7 NNE 2 7 1 4 1013.4 1013.4 0.0
 
Date/Time
EST
Temp
°C
App
Temp
°C
Dew
Point
°C
Rel
Hum
%
Delta-T
°C
Wind Press
QNH
hPa
Press
MSL
hPa
Rain since
9am
mm
Dir  Spd
km/h
Gust
km/h
Spd
kts
Gust
kts
23/11:30pm 11.7 11.2 8.0 78 1.8 CALM 0 0 0 0 1013.6 1013.6 0.0
23/11:00pm 12.2 10.4 8.1 76 2.0 ENE 7 9 4 5 1013.9 1013.9 0.0
23/10:30pm 12.0 10.2 8.1 77 1.9 NE 7 9 4 5 1014.2 1014.2 0.0
23/10:00pm 11.8 11.5 8.8 82 1.5 CALM 0 0 0 0 1014.3 1014.3 0.0
23/09:30pm 12.0 11.7 8.6 80 1.7 CALM 0 0 0 0 1014.4 1014.4 0.0
23/09:00pm 12.2 11.5 8.6 78 1.8 SE 2 6 1 3 1014.6 1014.6 0.0
23/08:30pm 12.2 10.8 9.0 81 1.6 SSW 6 9 3 5 1014.6 1014.6 0.0
23/08:00pm 12.2 10.7 9.2 82 1.5 SW 7 11 4 6 1014.6 1014.6 0.0
23/07:30pm 12.3 10.5 9.5 83 1.4 S 9 13 5 7 1014.5 1014.5 0.0
23/07:00pm 12.5 10.4 9.6 82 1.5 SSE 11 19 6 10 1014.4 1014.4 0.0
23/06:30pm 12.8 10.2 9.5 80 1.7 SSE 13 19 7 10 1014.1 1014.1 0.0
23/06:00pm 13.4 9.9 8.8 74 2.3 SE 17 20 9 11 1014.0 1014.0 0.0
23/05:30pm 14.1 10.6 7.4 64 3.3 SE 15 20 8 11 1014.0 1014.0 0.0
23/05:00pm 14.3 10.6 7.9 65 3.2 SE 17 20 9 11 1014.0 1014.0 0.0
23/04:30pm 14.6 11.2 7.5 62 3.5 SE 15 20 8 11 1014.0 1014.0 0.0
23/04:00pm 14.8 11.9 8.0 64 3.4 SE 13 17 7 9 1013.9 1013.9 0.0
23/03:30pm 14.9 11.6 8.1 64 3.4 SE 15 20 8 11 1014.0 1014.0 0.0
23/03:00pm 15.0 11.6 7.5 61 3.7 SE 15 20 8 11 1014.2 1014.2 0.0
23/02:30pm 15.4 11.8 6.8 56 4.2 SE 15 19 8 10 1014.4 1014.4 0.0
23/02:00pm 14.8 11.7 7.1 60 3.8 SE 13 17 7 9 1014.7 1014.7 0.0
23/01:30pm 15.0 11.4 6.8 58 4.0 SE 15 17 8 9 1014.9 1014.9 0.0
23/01:00pm 14.7 11.1 6.9 59 3.8 SE 15 19 8 10 1015.3 1015.3 0.0
23/12:30pm 14.7 11.6 7.4 61 3.6 SE 13 15 7 8 1015.7 1015.7 0.0
23/12:00pm 14.7 11.8 8.1 64 3.3 ESE 13 17 7 9 1016.0 1016.0 0.0
23/11:30am 14.1 11.9 7.9 66 3.1 SE 9 13 5 7 1016.4 1016.4 0.0
23/11:00am 13.6 11.1 8.2 70 2.7 SE 11 13 6 7 1016.7 1016.7 0.0
23/10:30am 14.0 11.9 8.4 69 2.8 ESE 9 11 5 6 1017.1 1017.1 0.0
23/10:00am 13.0 10.3 7.5 69 2.7 ESE 11 13 6 7 1017.4 1017.4 0.0
23/09:30am 14.3 12.1 7.9 65 3.2 E 9 13 5 7 1017.6 1017.6 0.0
23/09:00am 13.9 11.4 8.3 69 2.8 ENE 11 15 6 8 1017.7 1017.7 0.0
23/08:30am 13.8 12.4 8.9 72 2.5 E 6 9 3 5 1017.7 1017.7 0.0
23/08:00am 12.3 12.1 9.1 81 1.6 CALM 0 0 0 0 1017.8 1017.8 0.0
23/07:30am 11.4 11.1 8.8 84 1.3 CALM 0 0 0 0 1017.8 1017.8 0.0
23/07:00am 10.7 9.0 8.5 86 1.1 W 7 9 4 5 1017.8 1017.8 0.0
23/06:30am 10.7 9.6 8.5 86 1.1 WSW 4 9 2 5 1017.6 1017.6 0.0
23/06:00am 10.6 8.9 8.3 86 1.1 W 7 11 4 6 1017.4 1017.4 0.0
23/05:30am 10.8 9.3 8.6 86 1.1 WSW 6 9 3 5 1017.1 1017.1 0.0
23/05:00am 10.6 9.9 8.6 87 1.0 WSW 2 11 1 6 1016.9 1016.9 0.0
23/04:30am 11.0 10.3 8.6 85 1.2 WNW 2 7 1 4 1016.8 1016.8 0.0
23/04:00am 10.8 10.4 8.3 84 1.2 CALM 0 0 0 0 1016.8 1016.8 0.0
23/03:30am 11.0 10.6 8.3 83 1.3 CALM 0 0 0 0 1016.7 1016.7 0.0
23/03:00am 11.1 9.5 8.2 82 1.4 SSW 6 9 3 5 1016.7 1016.7 0.0
23/02:30am 11.0 10.2 8.3 83 1.3 SSW 2 7 1 4 1016.7 1016.7 0.0
23/02:00am 11.2 9.5 8.3 82 1.4 SSW 7 11 4 6 1017.0 1017.0 0.0
23/01:30am 11.4 9.7 8.3 81 1.5 SSW 7 9 4 5 1017.2 1017.2 0.0
23/01:00am 11.4 9.3 8.1 80 1.6 SSW 9 13 5 7 1017.2 1017.2 0.0
23/12:30am 11.5 10.8 8.5 82 1.5 ESE 2 7 1 4 1017.2 1017.2 0.0
23/12:00am 11.6 10.0 7.9 78 1.8 S 6 7 3 4 1017.2 1017.2 0.0
 
Date/Time
EST
Temp
°C
App
Temp
°C
Dew
Point
°C
Rel
Hum
%
Delta-T
°C
Wind Press
QNH
hPa
Press
MSL
hPa
Rain since
9am
mm
Dir  Spd
km/h
Gust
km/h
Spd
kts
Gust
kts
22/11:30pm 11.8 9.6 7.9 77 1.9 S 9 15 5 8 1017.3 1017.3 0.0
22/11:00pm 11.9 9.7 7.8 76 2.0 SSE 9 13 5 7 1017.4 1017.4 0.0
22/10:30pm 12.0 10.2 7.9 76 2.0 SSE 7 13 4 7 1017.5 1017.5 0.0
22/10:00pm 11.7 10.3 8.7 82 1.5 SSW 6 7 3 4 1017.5 1017.5 0.0
22/09:30pm 11.7 9.7 8.7 82 1.5 SSW 9 11 5 6 1017.3 1017.3 0.0
22/09:00pm 11.7 10.1 8.7 82 1.5 SSW 7 9 4 5 1017.1 1017.1 0.0
22/08:30pm 12.0 10.0 8.8 81 1.6 SSW 9 13 5 7 1017.3 1017.3 0.0
22/08:00pm 12.2 10.6 8.8 80 1.7 S 7 11 4 6 1017.3 1017.3 0.0
22/07:30pm 12.1 11.1 10.2 88 1.0 SE 6 11 3 6 1017.1 1017.1 0.0
22/07:00pm 12.2 9.7 9.8 85 1.2 SE 13 19 7 10 1016.8 1016.8 0.0
22/06:30pm 12.3 10.3 10.0 86 1.2 SE 11 15 6 8 1016.6 1016.6 0.0
22/06:00pm 12.4 10.0 9.9 85 1.3 SE 13 19 7 10 1016.3 1016.3 0.0
22/05:30pm 12.7 9.4 9.6 81 1.6 SE 17 22 9 12 1016.0 1016.0 0.0
22/05:00pm 12.9 9.3 9.8 81 1.6 ESE 19 22 10 12 1015.8 1015.8 0.0
22/04:30pm 13.0 8.8 9.9 81 1.6 SE 22 28 12 15 1015.4 1015.4 0.0
22/04:00pm 13.6 9.7 8.6 72 2.5 SE 19 24 10 13 1015.2 1015.2 0.0
22/03:30pm 13.6 9.8 9.7 77 2.0 SE 20 26 11 14 1015.1 1015.1 0.0
22/03:00pm 14.1 11.0 8.8 70 2.7 ESE 15 19 8 10 1015.0 1015.0 0.0
22/02:30pm 13.7 10.1 8.3 70 2.7 SE 17 22 9 12 1015.0 1015.0 0.0
22/02:00pm 13.8 10.2 8.4 70 2.7 ESE 17 20 9 11 1014.9 1014.9 0.0

Latest Capital City Observations: Canberra | Sydney | Melbourne | Brisbane | Adelaide | Perth | Hobart | Darwin

Other Formats:

Comma delimited format used in spreadsheet applications
http://www.bom.gov.au/fwo/IDT60901/IDT60901.94970.axf

JavaScript Object Notation format (JSON) in row-major order
http://www.bom.gov.au/fwo/IDT60901/IDT60901.94970.json